sensor_id;sensor_type;location;lat;lon;timestamp;P1;durP1;ratioP1;P2;durP2;ratioP2
15159;SDS011;7680;48.800;9.680;2024-03-25T00:03:26;3.47;;;3.17;;
15159;SDS011;7680;48.800;9.680;2024-03-25T00:08:29;3.90;;;3.03;;
15159;SDS011;7680;48.800;9.680;2024-03-25T00:13:33;3.10;;;2.80;;
15159;SDS011;7680;48.800;9.680;2024-03-25T00:18:35;3.27;;;2.93;;
15159;SDS011;7680;48.800;9.680;2024-03-25T00:23:37;3.90;;;2.83;;
15159;SDS011;7680;48.800;9.680;2024-03-25T00:28:40;3.47;;;3.17;;
15159;SDS011;7680;48.800;9.680;2024-03-25T00:33:42;3.53;;;3.20;;
15159;SDS011;7680;48.800;9.680;2024-03-25T00:38:45;3.50;;;3.20;;
15159;SDS011;7680;48.800;9.680;2024-03-25T00:43:48;4.13;;;3.27;;
15159;SDS011;7680;48.800;9.680;2024-03-25T00:48:50;4.20;;;3.43;;
15159;SDS011;7680;48.800;9.680;2024-03-25T00:53:52;3.53;;;3.10;;
15159;SDS011;7680;48.800;9.680;2024-03-25T00:58:56;5.30;;;3.53;;
15159;SDS011;7680;48.800;9.680;2024-03-25T01:04:02;3.53;;;3.23;;
15159;SDS011;7680;48.800;9.680;2024-03-25T01:09:05;4.03;;;3.50;;
15159;SDS011;7680;48.800;9.680;2024-03-25T01:14:09;4.10;;;3.47;;
15159;SDS011;7680;48.800;9.680;2024-03-25T01:19:11;4.00;;;3.60;;
15159;SDS011;7680;48.800;9.680;2024-03-25T01:24:13;3.87;;;3.53;;
15159;SDS011;7680;48.800;9.680;2024-03-25T01:29:17;3.97;;;3.27;;
15159;SDS011;7680;48.800;9.680;2024-03-25T01:34:19;4.67;;;3.70;;
15159;SDS011;7680;48.800;9.680;2024-03-25T01:39:21;4.10;;;3.80;;
15159;SDS011;7680;48.800;9.680;2024-03-25T01:44:25;4.93;;;3.97;;
15159;SDS011;7680;48.800;9.680;2024-03-25T01:49:28;5.47;;;3.80;;
15159;SDS011;7680;48.800;9.680;2024-03-25T01:54:30;3.83;;;3.50;;
15159;SDS011;7680;48.800;9.680;2024-03-25T01:59:34;4.57;;;3.53;;
15159;SDS011;7680;48.800;9.680;2024-03-25T02:04:36;6.07;;;3.57;;
15159;SDS011;7680;48.800;9.680;2024-03-25T02:09:39;4.17;;;3.80;;
15159;SDS011;7680;48.800;9.680;2024-03-25T02:14:43;5.10;;;4.57;;
15159;SDS011;7680;48.800;9.680;2024-03-25T02:19:45;5.43;;;3.90;;
15159;SDS011;7680;48.800;9.680;2024-03-25T02:24:49;5.30;;;4.03;;
15159;SDS011;7680;48.800;9.680;2024-03-25T02:29:55;4.30;;;3.90;;
15159;SDS011;7680;48.800;9.680;2024-03-25T02:35:05;4.20;;;3.87;;
15159;SDS011;7680;48.800;9.680;2024-03-25T02:40:11;4.40;;;3.90;;
15159;SDS011;7680;48.800;9.680;2024-03-25T02:45:14;4.77;;;3.97;;
15159;SDS011;7680;48.800;9.680;2024-03-25T02:50:17;4.40;;;4.10;;
15159;SDS011;7680;48.800;9.680;2024-03-25T02:55:19;4.30;;;3.90;;
15159;SDS011;7680;48.800;9.680;2024-03-25T03:00:23;4.37;;;3.97;;
15159;SDS011;7680;48.800;9.680;2024-03-25T03:05:25;4.87;;;4.33;;
15159;SDS011;7680;48.800;9.680;2024-03-25T03:10:27;4.40;;;3.93;;
15159;SDS011;7680;48.800;9.680;2024-03-25T03:15:30;5.40;;;4.17;;
15159;SDS011;7680;48.800;9.680;2024-03-25T03:20:32;4.67;;;3.97;;
15159;SDS011;7680;48.800;9.680;2024-03-25T03:25:35;5.23;;;4.20;;
15159;SDS011;7680;48.800;9.680;2024-03-25T03:30:38;5.30;;;3.87;;
15159;SDS011;7680;48.800;9.680;2024-03-25T03:35:40;6.00;;;4.30;;
15159;SDS011;7680;48.800;9.680;2024-03-25T03:40:42;5.87;;;4.33;;
15159;SDS011;7680;48.800;9.680;2024-03-25T03:45:49;4.43;;;4.03;;
15159;SDS011;7680;48.800;9.680;2024-03-25T03:50:51;4.93;;;4.10;;
15159;SDS011;7680;48.800;9.680;2024-03-25T03:55:54;4.90;;;4.33;;
15159;SDS011;7680;48.800;9.680;2024-03-25T04:00:57;5.70;;;4.70;;
15159;SDS011;7680;48.800;9.680;2024-03-25T04:06:00;6.43;;;5.40;;
15159;SDS011;7680;48.800;9.680;2024-03-25T04:11:10;5.77;;;4.43;;
15159;SDS011;7680;48.800;9.680;2024-03-25T04:16:13;5.43;;;4.27;;
15159;SDS011;7680;48.800;9.680;2024-03-25T04:21:16;6.83;;;4.90;;
15159;SDS011;7680;48.800;9.680;2024-03-25T04:26:19;6.67;;;4.37;;
15159;SDS011;7680;48.800;9.680;2024-03-25T04:31:22;5.27;;;4.33;;
15159;SDS011;7680;48.800;9.680;2024-03-25T04:36:25;4.70;;;4.17;;
15159;SDS011;7680;48.800;9.680;2024-03-25T04:41:27;5.50;;;4.40;;
15159;SDS011;7680;48.800;9.680;2024-03-25T04:46:29;6.73;;;4.20;;
15159;SDS011;7680;48.800;9.680;2024-03-25T04:51:30;4.67;;;4.03;;
15159;SDS011;7680;48.800;9.680;2024-03-25T04:56:32;4.67;;;4.27;;
15159;SDS011;7680;48.800;9.680;2024-03-25T05:01:34;5.50;;;4.70;;
15159;SDS011;7680;48.800;9.680;2024-03-25T05:06:36;5.47;;;4.97;;
15159;SDS011;7680;48.800;9.680;2024-03-25T05:11:37;5.30;;;4.90;;
15159;SDS011;7680;48.800;9.680;2024-03-25T05:16:39;5.27;;;4.77;;
15159;SDS011;7680;48.800;9.680;2024-03-25T05:21:41;5.63;;;5.10;;
15159;SDS011;7680;48.800;9.680;2024-03-25T05:26:42;5.67;;;4.97;;
15159;SDS011;7680;48.800;9.680;2024-03-25T05:31:56;4.80;;;4.40;;
15159;SDS011;7680;48.800;9.680;2024-03-25T05:36:59;5.17;;;4.37;;
15159;SDS011;7680;48.800;9.680;2024-03-25T05:42:00;4.20;;;3.80;;
15159;SDS011;7680;48.800;9.680;2024-03-25T05:47:03;5.03;;;4.53;;
15159;SDS011;7680;48.800;9.680;2024-03-25T05:52:04;5.07;;;4.50;;
15159;SDS011;7680;48.800;9.680;2024-03-25T05:57:06;12.30;;;7.57;;
15159;SDS011;7680;48.800;9.680;2024-03-25T06:02:19;6.23;;;5.60;;
15159;SDS011;7680;48.800;9.680;2024-03-25T06:07:20;6.03;;;4.83;;
15159;SDS011;7680;48.800;9.680;2024-03-25T06:12:21;6.77;;;5.47;;
15159;SDS011;7680;48.800;9.680;2024-03-25T06:17:24;6.20;;;4.73;;
15159;SDS011;7680;48.800;9.680;2024-03-25T06:22:25;7.10;;;5.50;;
15159;SDS011;7680;48.800;9.680;2024-03-25T06:27:26;5.57;;;4.33;;
15159;SDS011;7680;48.800;9.680;2024-03-25T06:32:29;5.43;;;4.93;;
15159;SDS011;7680;48.800;9.680;2024-03-25T06:37:49;4.90;;;4.33;;
15159;SDS011;7680;48.800;9.680;2024-03-25T06:42:50;4.73;;;3.90;;
15159;SDS011;7680;48.800;9.680;2024-03-25T06:47:52;4.93;;;4.17;;
15159;SDS011;7680;48.800;9.680;2024-03-25T06:52:54;5.73;;;5.13;;
15159;SDS011;7680;48.800;9.680;2024-03-25T06:57:55;7.83;;;6.00;;
15159;SDS011;7680;48.800;9.680;2024-03-25T07:02:58;7.17;;;5.10;;
15159;SDS011;7680;48.800;9.680;2024-03-25T07:07:59;5.70;;;4.55;;
15159;SDS011;7680;48.800;9.680;2024-03-25T07:13:00;5.63;;;4.00;;
15159;SDS011;7680;48.800;9.680;2024-03-25T07:18:03;5.20;;;3.97;;
15159;SDS011;7680;48.800;9.680;2024-03-25T07:23:05;5.60;;;3.90;;
15159;SDS011;7680;48.800;9.680;2024-03-25T07:28:06;6.53;;;3.97;;
15159;SDS011;7680;48.800;9.680;2024-03-25T07:33:09;6.50;;;4.00;;
15159;SDS011;7680;48.800;9.680;2024-03-25T07:38:10;5.10;;;4.23;;
15159;SDS011;7680;48.800;9.680;2024-03-25T07:43:11;7.37;;;4.57;;
15159;SDS011;7680;48.800;9.680;2024-03-25T07:48:14;4.83;;;4.07;;
15159;SDS011;7680;48.800;9.680;2024-03-25T07:53:15;5.50;;;4.40;;
15159;SDS011;7680;48.800;9.680;2024-03-25T07:58:16;8.60;;;4.47;;
15159;SDS011;7680;48.800;9.680;2024-03-25T08:03:19;4.57;;;3.93;;
15159;SDS011;7680;48.800;9.680;2024-03-25T08:08:20;6.90;;;3.80;;
15159;SDS011;7680;48.800;9.680;2024-03-25T08:13:21;4.77;;;4.00;;
15159;SDS011;7680;48.800;9.680;2024-03-25T08:18:24;5.73;;;4.33;;
15159;SDS011;7680;48.800;9.680;2024-03-25T08:23:25;5.00;;;4.50;;
15159;SDS011;7680;48.800;9.680;2024-03-25T08:28:26;7.03;;;4.50;;
15159;SDS011;7680;48.800;9.680;2024-03-25T08:33:29;5.95;;;4.30;;
15159;SDS011;7680;48.800;9.680;2024-03-25T08:38:30;6.35;;;3.95;;
15159;SDS011;7680;48.800;9.680;2024-03-25T08:43:31;3.78;;;3.35;;
15159;SDS011;7680;48.800;9.680;2024-03-25T08:48:34;4.53;;;3.47;;
15159;SDS011;7680;48.800;9.680;2024-03-25T08:53:35;4.97;;;4.03;;
15159;SDS011;7680;48.800;9.680;2024-03-25T08:58:36;5.00;;;4.00;;
15159;SDS011;7680;48.800;9.680;2024-03-25T09:03:39;6.05;;;3.75;;
15159;SDS011;7680;48.800;9.680;2024-03-25T09:08:40;4.38;;;3.60;;
15159;SDS011;7680;48.800;9.680;2024-03-25T09:13:56;5.45;;;4.10;;
15159;SDS011;7680;48.800;9.680;2024-03-25T09:18:59;6.55;;;3.60;;
15159;SDS011;7680;48.800;9.680;2024-03-25T09:24:01;5.07;;;3.42;;
15159;SDS011;7680;48.800;9.680;2024-03-25T09:29:02;4.45;;;3.45;;
15159;SDS011;7680;48.800;9.680;2024-03-25T09:34:04;5.90;;;4.10;;
15159;SDS011;7680;48.800;9.680;2024-03-25T09:39:06;4.80;;;3.20;;
15159;SDS011;7680;48.800;9.680;2024-03-25T09:44:07;4.43;;;3.03;;
15159;SDS011;7680;48.800;9.680;2024-03-25T09:49:10;5.00;;;2.67;;
15159;SDS011;7680;48.800;9.680;2024-03-25T09:54:11;2.72;;;2.50;;
15159;SDS011;7680;48.800;9.680;2024-03-25T09:59:12;3.63;;;2.58;;
15159;SDS011;7680;48.800;9.680;2024-03-25T10:04:15;5.13;;;2.95;;
15159;SDS011;7680;48.800;9.680;2024-03-25T10:09:18;3.38;;;2.90;;
15159;SDS011;7680;48.800;9.680;2024-03-25T10:14:20;3.78;;;2.97;;
15159;SDS011;7680;48.800;9.680;2024-03-25T10:19:22;2.90;;;2.60;;
15159;SDS011;7680;48.800;9.680;2024-03-25T10:24:24;4.53;;;3.15;;
15159;SDS011;7680;48.800;9.680;2024-03-25T10:29:25;3.10;;;2.85;;
15159;SDS011;7680;48.800;9.680;2024-03-25T10:34:27;3.10;;;2.70;;
15159;SDS011;7680;48.800;9.680;2024-03-25T10:39:30;3.10;;;2.80;;
15159;SDS011;7680;48.800;9.680;2024-03-25T10:44:32;3.90;;;2.85;;
15159;SDS011;7680;48.800;9.680;2024-03-25T10:49:37;3.15;;;2.75;;
15159;SDS011;7680;48.800;9.680;2024-03-25T10:54:46;3.40;;;2.90;;
15159;SDS011;7680;48.800;9.680;2024-03-25T10:59:48;4.40;;;2.90;;
15159;SDS011;7680;48.800;9.680;2024-03-25T11:04:51;3.13;;;2.83;;
15159;SDS011;7680;48.800;9.680;2024-03-25T11:09:53;3.10;;;2.65;;
15159;SDS011;7680;48.800;9.680;2024-03-25T11:15:06;3.25;;;2.75;;
15159;SDS011;7680;48.800;9.680;2024-03-25T11:20:11;2.95;;;2.75;;
15159;SDS011;7680;48.800;9.680;2024-03-25T11:25:15;3.42;;;2.80;;
15159;SDS011;7680;48.800;9.680;2024-03-25T11:30:17;4.00;;;3.15;;
15159;SDS011;7680;48.800;9.680;2024-03-25T11:35:20;3.72;;;2.72;;
15159;SDS011;7680;48.800;9.680;2024-03-25T11:40:22;3.42;;;3.05;;
15159;SDS011;7680;48.800;9.680;2024-03-25T11:45:23;3.85;;;3.50;;
15159;SDS011;7680;48.800;9.680;2024-03-25T11:50:26;3.85;;;3.38;;
15159;SDS011;7680;48.800;9.680;2024-03-25T11:55:27;3.88;;;3.47;;
15159;SDS011;7680;48.800;9.680;2024-03-25T12:00:28;4.25;;;3.75;;
15159;SDS011;7680;48.800;9.680;2024-03-25T12:05:31;3.85;;;3.47;;
15159;SDS011;7680;48.800;9.680;2024-03-25T12:10:32;4.13;;;3.72;;
15159;SDS011;7680;48.800;9.680;2024-03-25T12:15:52;3.58;;;3.08;;
15159;SDS011;7680;48.800;9.680;2024-03-25T12:20:55;3.10;;;2.83;;
15159;SDS011;7680;48.800;9.680;2024-03-25T12:25:58;5.55;;;3.25;;
15159;SDS011;7680;48.800;9.680;2024-03-25T12:31:00;3.38;;;3.03;;
15159;SDS011;7680;48.800;9.680;2024-03-25T12:36:03;2.97;;;2.78;;
15159;SDS011;7680;48.800;9.680;2024-03-25T12:41:07;3.88;;;3.50;;
15159;SDS011;7680;48.800;9.680;2024-03-25T12:46:09;4.15;;;3.00;;
15159;SDS011;7680;48.800;9.680;2024-03-25T12:51:13;3.60;;;3.30;;
15159;SDS011;7680;48.800;9.680;2024-03-25T12:56:15;3.60;;;3.40;;
15159;SDS011;7680;48.800;9.680;2024-03-25T13:01:16;3.25;;;2.90;;
15159;SDS011;7680;48.800;9.680;2024-03-25T13:06:19;3.15;;;2.95;;
15159;SDS011;7680;48.800;9.680;2024-03-25T13:11:20;3.92;;;2.83;;
15159;SDS011;7680;48.800;9.680;2024-03-25T13:16:22;3.83;;;3.22;;
15159;SDS011;7680;48.800;9.680;2024-03-25T13:21:25;3.35;;;3.05;;
15159;SDS011;7680;48.800;9.680;2024-03-25T13:26:26;4.32;;;3.38;;
15159;SDS011;7680;48.800;9.680;2024-03-25T13:31:27;3.53;;;3.22;;
15159;SDS011;7680;48.800;9.680;2024-03-25T13:36:30;3.58;;;3.08;;
15159;SDS011;7680;48.800;9.680;2024-03-25T13:41:32;4.03;;;2.67;;
15159;SDS011;7680;48.800;9.680;2024-03-25T13:46:33;2.60;;;2.40;;
15159;SDS011;7680;48.800;9.680;2024-03-25T13:51:36;3.63;;;3.20;;
15159;SDS011;7680;48.800;9.680;2024-03-25T13:56:37;3.40;;;2.80;;
15159;SDS011;7680;48.800;9.680;2024-03-25T14:01:38;3.35;;;3.05;;
15159;SDS011;7680;48.800;9.680;2024-03-25T14:06:41;2.92;;;2.65;;
15159;SDS011;7680;48.800;9.680;2024-03-25T14:11:42;4.20;;;2.95;;
15159;SDS011;7680;48.800;9.680;2024-03-25T14:16:43;3.08;;;2.78;;
15159;SDS011;7680;48.800;9.680;2024-03-25T14:21:48;3.05;;;2.85;;
15159;SDS011;7680;48.800;9.680;2024-03-25T14:26:50;3.70;;;2.70;;
15159;SDS011;7680;48.800;9.680;2024-03-25T14:31:51;4.03;;;3.63;;
15159;SDS011;7680;48.800;9.680;2024-03-25T14:36:54;2.63;;;2.40;;
15159;SDS011;7680;48.800;9.680;2024-03-25T14:41:55;3.08;;;2.70;;
15159;SDS011;7680;48.800;9.680;2024-03-25T14:46:56;3.85;;;2.88;;
15159;SDS011;7680;48.800;9.680;2024-03-25T14:51:59;3.45;;;2.97;;
15159;SDS011;7680;48.800;9.680;2024-03-25T14:57:00;3.58;;;3.00;;
15159;SDS011;7680;48.800;9.680;2024-03-25T15:02:02;3.70;;;3.35;;
15159;SDS011;7680;48.800;9.680;2024-03-25T15:07:05;3.60;;;3.30;;
15159;SDS011;7680;48.800;9.680;2024-03-25T15:12:06;4.47;;;3.67;;
15159;SDS011;7680;48.800;9.680;2024-03-25T15:17:07;3.10;;;2.85;;
15159;SDS011;7680;48.800;9.680;2024-03-25T15:22:10;3.28;;;2.95;;
15159;SDS011;7680;48.800;9.680;2024-03-25T15:27:11;3.70;;;3.40;;
15159;SDS011;7680;48.800;9.680;2024-03-25T15:32:12;3.25;;;2.95;;
15159;SDS011;7680;48.800;9.680;2024-03-25T15:37:15;3.53;;;3.03;;
15159;SDS011;7680;48.800;9.680;2024-03-25T15:42:16;3.03;;;2.80;;
15159;SDS011;7680;48.800;9.680;2024-03-25T15:47:17;3.00;;;2.80;;
15159;SDS011;7680;48.800;9.680;2024-03-25T15:52:20;3.10;;;2.90;;
15159;SDS011;7680;48.800;9.680;2024-03-25T15:57:21;2.88;;;2.58;;
15159;SDS011;7680;48.800;9.680;2024-03-25T16:02:23;4.40;;;2.58;;
15159;SDS011;7680;48.800;9.680;2024-03-25T16:07:25;2.75;;;2.53;;
15159;SDS011;7680;48.800;9.680;2024-03-25T16:12:27;3.15;;;2.85;;
15159;SDS011;7680;48.800;9.680;2024-03-25T16:17:29;2.80;;;2.20;;
15159;SDS011;7680;48.800;9.680;2024-03-25T16:22:32;2.20;;;2.00;;
15159;SDS011;7680;48.800;9.680;2024-03-25T16:27:33;2.47;;;2.28;;
15159;SDS011;7680;48.800;9.680;2024-03-25T16:32:34;2.33;;;2.22;;
15159;SDS011;7680;48.800;9.680;2024-03-25T16:37:38;2.70;;;2.20;;
15159;SDS011;7680;48.800;9.680;2024-03-25T16:42:39;2.47;;;2.15;;
15159;SDS011;7680;48.800;9.680;2024-03-25T16:47:40;2.30;;;2.20;;
15159;SDS011;7680;48.800;9.680;2024-03-25T16:52:43;2.72;;;2.17;;
15159;SDS011;7680;48.800;9.680;2024-03-25T16:57:44;2.53;;;2.10;;
15159;SDS011;7680;48.800;9.680;2024-03-25T17:02:45;2.55;;;2.35;;
15159;SDS011;7680;48.800;9.680;2024-03-25T17:07:48;2.47;;;2.28;;
15159;SDS011;7680;48.800;9.680;2024-03-25T17:12:49;2.60;;;2.30;;
15159;SDS011;7680;48.800;9.680;2024-03-25T17:17:51;2.47;;;2.15;;
15159;SDS011;7680;48.800;9.680;2024-03-25T17:22:54;2.63;;;2.42;;
15159;SDS011;7680;48.800;9.680;2024-03-25T17:27:55;2.58;;;2.38;;
15159;SDS011;7680;48.800;9.680;2024-03-25T17:32:57;2.50;;;2.30;;
15159;SDS011;7680;48.800;9.680;2024-03-25T17:37:59;2.50;;;2.30;;
15159;SDS011;7680;48.800;9.680;2024-03-25T17:43:01;2.92;;;2.50;;
15159;SDS011;7680;48.800;9.680;2024-03-25T17:48:02;3.20;;;2.40;;
15159;SDS011;7680;48.800;9.680;2024-03-25T17:53:05;4.18;;;3.70;;
15159;SDS011;7680;48.800;9.680;2024-03-25T17:58:06;4.22;;;3.47;;
15159;SDS011;7680;48.800;9.680;2024-03-25T18:03:07;3.35;;;2.72;;
15159;SDS011;7680;48.800;9.680;2024-03-25T18:08:10;3.10;;;2.80;;
15159;SDS011;7680;48.800;9.680;2024-03-25T18:13:11;2.80;;;2.55;;
15159;SDS011;7680;48.800;9.680;2024-03-25T18:18:13;2.50;;;2.30;;
15159;SDS011;7680;48.800;9.680;2024-03-25T18:23:16;4.13;;;3.58;;
15159;SDS011;7680;48.800;9.680;2024-03-25T18:28:18;3.70;;;3.27;;
15159;SDS011;7680;48.800;9.680;2024-03-25T18:33:19;4.80;;;4.50;;
15159;SDS011;7680;48.800;9.680;2024-03-25T18:38:21;4.50;;;4.10;;
15159;SDS011;7680;48.800;9.680;2024-03-25T18:43:23;7.10;;;6.47;;
15159;SDS011;7680;48.800;9.680;2024-03-25T18:48:24;5.53;;;5.03;;
15159;SDS011;7680;48.800;9.680;2024-03-25T18:53:27;3.83;;;3.53;;
15159;SDS011;7680;48.800;9.680;2024-03-25T18:58:28;3.60;;;3.37;;
15159;SDS011;7680;48.800;9.680;2024-03-25T19:03:29;4.00;;;3.60;;
15159;SDS011;7680;48.800;9.680;2024-03-25T19:08:32;3.80;;;3.50;;
15159;SDS011;7680;48.800;9.680;2024-03-25T19:13:33;4.10;;;3.50;;
15159;SDS011;7680;48.800;9.680;2024-03-25T19:18:34;3.87;;;3.53;;
15159;SDS011;7680;48.800;9.680;2024-03-25T19:23:36;4.57;;;3.80;;
15159;SDS011;7680;48.800;9.680;2024-03-25T19:28:38;4.80;;;4.40;;
15159;SDS011;7680;48.800;9.680;2024-03-25T19:33:39;4.33;;;3.70;;
15159;SDS011;7680;48.800;9.680;2024-03-25T19:38:42;4.50;;;4.10;;
15159;SDS011;7680;48.800;9.680;2024-03-25T19:43:43;4.53;;;4.07;;
15159;SDS011;7680;48.800;9.680;2024-03-25T19:48:44;5.73;;;5.17;;
15159;SDS011;7680;48.800;9.680;2024-03-25T19:53:47;5.80;;;5.20;;
15159;SDS011;7680;48.800;9.680;2024-03-25T19:58:48;5.50;;;5.00;;
15159;SDS011;7680;48.800;9.680;2024-03-25T20:03:49;4.97;;;4.57;;
15159;SDS011;7680;48.800;9.680;2024-03-25T20:08:52;5.30;;;4.90;;
15159;SDS011;7680;48.800;9.680;2024-03-25T20:13:53;6.93;;;6.23;;
15159;SDS011;7680;48.800;9.680;2024-03-25T20:18:54;5.23;;;4.70;;
15159;SDS011;7680;48.800;9.680;2024-03-25T20:23:57;5.47;;;4.97;;
15159;SDS011;7680;48.800;9.680;2024-03-25T20:28:58;6.13;;;5.50;;
15159;SDS011;7680;48.800;9.680;2024-03-25T20:33:59;6.80;;;5.27;;
15159;SDS011;7680;48.800;9.680;2024-03-25T20:39:02;5.30;;;4.80;;
15159;SDS011;7680;48.800;9.680;2024-03-25T20:44:03;4.87;;;4.47;;
15159;SDS011;7680;48.800;9.680;2024-03-25T20:49:05;5.47;;;4.53;;
15159;SDS011;7680;48.800;9.680;2024-03-25T20:54:07;4.90;;;4.47;;
15159;SDS011;7680;48.800;9.680;2024-03-25T20:59:09;5.77;;;4.13;;
15159;SDS011;7680;48.800;9.680;2024-03-25T21:04:10;6.00;;;4.80;;
15159;SDS011;7680;48.800;9.680;2024-03-25T21:09:12;3.50;;;3.30;;
15159;SDS011;7680;48.800;9.680;2024-03-25T21:14:13;4.40;;;3.73;;
15159;SDS011;7680;48.800;9.680;2024-03-25T21:19:15;5.23;;;4.13;;
15159;SDS011;7680;48.800;9.680;2024-03-25T21:24:17;17.57;;;13.53;;
15159;SDS011;7680;48.800;9.680;2024-03-25T21:29:19;9.87;;;7.73;;
15159;SDS011;7680;48.800;9.680;2024-03-25T21:34:20;8.47;;;7.30;;
15159;SDS011;7680;48.800;9.680;2024-03-25T21:39:22;10.77;;;7.50;;
15159;SDS011;7680;48.800;9.680;2024-03-25T21:44:24;6.67;;;5.80;;
15159;SDS011;7680;48.800;9.680;2024-03-25T21:49:25;5.17;;;4.70;;
15159;SDS011;7680;48.800;9.680;2024-03-25T21:54:27;6.00;;;4.60;;
15159;SDS011;7680;48.800;9.680;2024-03-25T21:59:29;5.77;;;4.40;;
15159;SDS011;7680;48.800;9.680;2024-03-25T22:04:30;5.87;;;4.90;;
15159;SDS011;7680;48.800;9.680;2024-03-25T22:09:32;6.90;;;4.57;;
15159;SDS011;7680;48.800;9.680;2024-03-25T22:14:34;4.40;;;4.00;;
15159;SDS011;7680;48.800;9.680;2024-03-25T22:19:35;4.47;;;4.07;;
15159;SDS011;7680;48.800;9.680;2024-03-25T22:24:37;7.90;;;6.20;;
15159;SDS011;7680;48.800;9.680;2024-03-25T22:29:39;4.97;;;4.07;;
15159;SDS011;7680;48.800;9.680;2024-03-25T22:34:40;4.80;;;3.93;;
15159;SDS011;7680;48.800;9.680;2024-03-25T22:39:42;5.97;;;4.30;;
15159;SDS011;7680;48.800;9.680;2024-03-25T22:44:44;9.37;;;5.83;;
15159;SDS011;7680;48.800;9.680;2024-03-25T22:49:46;13.10;;;6.67;;
15159;SDS011;7680;48.800;9.680;2024-03-25T22:54:49;9.47;;;5.67;;
15159;SDS011;7680;48.800;9.680;2024-03-25T22:59:50;4.73;;;4.10;;
15159;SDS011;7680;48.800;9.680;2024-03-25T23:04:51;6.97;;;4.67;;
15159;SDS011;7680;48.800;9.680;2024-03-25T23:09:54;6.17;;;5.27;;
15159;SDS011;7680;48.800;9.680;2024-03-25T23:14:55;11.47;;;6.43;;
15159;SDS011;7680;48.800;9.680;2024-03-25T23:19:56;6.20;;;4.57;;
15159;SDS011;7680;48.800;9.680;2024-03-25T23:24:59;4.73;;;4.33;;
15159;SDS011;7680;48.800;9.680;2024-03-25T23:30:00;4.30;;;3.50;;
15159;SDS011;7680;48.800;9.680;2024-03-25T23:35:02;3.90;;;3.17;;
15159;SDS011;7680;48.800;9.680;2024-03-25T23:40:05;5.23;;;3.70;;
15159;SDS011;7680;48.800;9.680;2024-03-25T23:45:08;5.97;;;4.93;;
15159;SDS011;7680;48.800;9.680;2024-03-25T23:50:10;6.23;;;4.97;;
15159;SDS011;7680;48.800;9.680;2024-03-25T23:55:12;8.67;;;6.73;;
